Nelson, Wisconsin
Current Conditions -  °F | °C
As of 6:31 PM on Wednesday 17 Dec 2014 (Local Time) from KRGK Reporting Station
Broken Clouds Broken Clouds  
Wind Chill: 18°   Ceiling: 2000
Heat Index: 18°   Visibility: 10mi
Dew Point: 10°   Wind: 0mph
Humidity: 73%   Direction: NA
Pressure: 30.32"   Gusts: NA
Location:  44.42°N, 92.01°W
Report Text: KRGK 180031Z AUTO 00000KT 10SM BKN020 M08/M12 A3032 RMK AO2
Loading
Personal Weather Stations






























Interactive Weather Map New forecast layout! Learn more

10-Day Weather Forecast

Advertisements
Track Severe Weather on mobile